首页
METAR-TAF:

METAR-TAF

机场 :

迪奥里·哈马尼国际机场

尼亞美, 尼日尔

纬度: 13-29N, 经度: 002-10E, 海拔: 223米

当前天气观测

该预报发布于52分钟前的23:00 UTC
风速3节,风向
温度 28°C
湿度 40%
气压 1010 hPa

METAR: DRRN 212300Z AUTO 19003KT 28/13 Q1010

时间: 00:52 (23:52 UTC)

预报

该预报发布于52分钟前的23:00 UTC
预报有效从22日的 00点(UTC)到 23日的 06点(UTC)
风速8节,风向东转东南
能见度10公里或以上
1500米以下无云,无积雨云
几率 40%
从 22日的 06点(UTC)到 22日的 10点(UTC)
能見度: 4000
浮尘

TAF: DRRN 212300Z 2200/2306 12008KT CAVOK PROB40 2206/2210 4000 DU

超过4000个机场的气象观测和天气预报(METAR&TAF报告)。

可查询的气象台以黄色和红色小点在地图上表示。

将鼠标移到小点上方,可查看气象台名称。

然后点击查看天气观测和预报。

如需切换地图:点击带黑十字的绿色按钮放大地图;点击带横线的绿色按钮缩小地图;或者点击绿色箭头查看邻近地区的地图。


METAR-TAF: